Terminal Aerodrome Forecast
Issued by NWS

Home | Current Version | Previous Version | Text Only | Print | Product List | Glossary On
Versions: 1 2 3 4 5 6 7 8 9 10 11 12 13 14 15 16 17 18 19 20 21 22 23 24 25 26 27 28 29 30 31 32 33
000
FTUS43 KDMX 241227 AAB
TAFOTM
TAF AMD
KOTM 241227Z 2412/2512 11012KT 4SM -RA BR BKN005 OVC023
     FM241400 14013KT 3SM RA BR BKN005 OVC015
     FM241600 18014KT 5SM -RA BR BKN013
     FM241900 18012KT 5SM BR VCSH BKN022
     FM250200 14010KT 4SM -TSRA BR BKN013CB
     FM250700 14015G22KT 5SM -RA BKN006=

USA.gov is the U.S. government's official web portal to all federal, state and local government web resources and services.